sensor_id;sensor_type;location;lat;lon;timestamp;pressure;altitude;pressure_sealevel;temperature;humidity
48553;BME280;34335;51.566;6.994;2023-04-09T00:00:11;101963.75;;;8.00;100.00
48553;BME280;34335;51.566;6.994;2023-04-09T00:02:36;101968.06;;;7.99;100.00
48553;BME280;34335;51.566;6.994;2023-04-09T00:05:02;101967.09;;;7.95;100.00
48553;BME280;34335;51.566;6.994;2023-04-09T00:07:27;101967.03;;;7.94;100.00
48553;BME280;34335;51.566;6.994;2023-04-09T00:09:52;101972.88;;;7.87;100.00
48553;BME280;34335;51.566;6.994;2023-04-09T00:12:18;101970.09;;;7.80;100.00
48553;BME280;34335;51.566;6.994;2023-04-09T00:14:43;101971.84;;;7.82;100.00
48553;BME280;34335;51.566;6.994;2023-04-09T00:17:08;101971.75;;;7.78;100.00
48553;BME280;34335;51.566;6.994;2023-04-09T00:19:34;101968.19;;;7.75;100.00
48553;BME280;34335;51.566;6.994;2023-04-09T00:21:59;101965.34;;;7.67;100.00
48553;BME280;34335;51.566;6.994;2023-04-09T00:24:24;101967.94;;;7.67;100.00
48553;BME280;34335;51.566;6.994;2023-04-09T00:26:50;101968.00;;;7.69;100.00
48553;BME280;34335;51.566;6.994;2023-04-09T00:29:15;101966.66;;;7.53;100.00
48553;BME280;34335;51.566;6.994;2023-04-09T00:31:40;101968.47;;;7.57;100.00
48553;BME280;34335;51.566;6.994;2023-04-09T00:34:06;101961.91;;;7.39;100.00
48553;BME280;34335;51.566;6.994;2023-04-09T00:36:31;101961.56;;;7.28;100.00
48553;BME280;34335;51.566;6.994;2023-04-09T00:38:56;101960.19;;;7.40;100.00
48553;BME280;34335;51.566;6.994;2023-04-09T00:41:22;101956.91;;;7.45;100.00
48553;BME280;34335;51.566;6.994;2023-04-09T00:43:48;101962.78;;;7.40;100.00
48553;BME280;34335;51.566;6.994;2023-04-09T00:46:13;101960.63;;;7.26;100.00
48553;BME280;34335;51.566;6.994;2023-04-09T00:48:39;101967.41;;;7.23;100.00
48553;BME280;34335;51.566;6.994;2023-04-09T00:51:05;101955.41;;;7.25;100.00
48553;BME280;34335;51.566;6.994;2023-04-09T00:53:30;101956.94;;;7.20;100.00
48553;BME280;34335;51.566;6.994;2023-04-09T00:55:55;101960.47;;;7.22;100.00
48553;BME280;34335;51.566;6.994;2023-04-09T00:58:22;101955.97;;;7.16;100.00
48553;BME280;34335;51.566;6.994;2023-04-09T01:00:47;101960.72;;;7.04;100.00
48553;BME280;34335;51.566;6.994;2023-04-09T01:03:13;101961.47;;;6.99;100.00
48553;BME280;34335;51.566;6.994;2023-04-09T01:08:51;101963.28;;;7.02;100.00
48553;BME280;34335;51.566;6.994;2023-04-09T01:14:15;101958.66;;;6.93;100.00
48553;BME280;34335;51.566;6.994;2023-04-09T01:16:47;101963.25;;;6.76;100.00
48553;BME280;34335;51.566;6.994;2023-04-09T01:25:01;101962.00;;;6.65;100.00
48553;BME280;34335;51.566;6.994;2023-04-09T01:27:38;101957.66;;;6.64;100.00
48553;BME280;34335;51.566;6.994;2023-04-09T01:30:08;101960.78;;;6.55;100.00
48553;BME280;34335;51.566;6.994;2023-04-09T01:32:36;101961.22;;;6.67;100.00
48553;BME280;34335;51.566;6.994;2023-04-09T01:35:03;101963.59;;;6.61;100.00
48553;BME280;34335;51.566;6.994;2023-04-09T01:37:29;101962.63;;;6.58;100.00
48553;BME280;34335;51.566;6.994;2023-04-09T01:39:55;101966.03;;;6.57;100.00
48553;BME280;34335;51.566;6.994;2023-04-09T01:42:21;101962.50;;;6.54;100.00
48553;BME280;34335;51.566;6.994;2023-04-09T01:44:46;101963.84;;;6.45;100.00
48553;BME280;34335;51.566;6.994;2023-04-09T01:47:12;101962.88;;;6.41;100.00
48553;BME280;34335;51.566;6.994;2023-04-09T01:49:41;101965.59;;;6.21;100.00
48553;BME280;34335;51.566;6.994;2023-04-09T01:52:08;101967.00;;;6.13;100.00
48553;BME280;34335;51.566;6.994;2023-04-09T01:54:33;101956.94;;;6.19;100.00
48553;BME280;34335;51.566;6.994;2023-04-09T01:56:59;101962.50;;;6.07;100.00
48553;BME280;34335;51.566;6.994;2023-04-09T01:59:25;101962.22;;;6.00;100.00
48553;BME280;34335;51.566;6.994;2023-04-09T02:01:57;101956.84;;;5.95;100.00
48553;BME280;34335;51.566;6.994;2023-04-09T02:04:32;101962.03;;;5.95;100.00
48553;BME280;34335;51.566;6.994;2023-04-09T02:09:54;101953.44;;;5.96;100.00
48553;BME280;34335;51.566;6.994;2023-04-09T02:12:20;101962.88;;;5.96;100.00
48553;BME280;34335;51.566;6.994;2023-04-09T02:14:47;101962.94;;;5.97;100.00
48553;BME280;34335;51.566;6.994;2023-04-09T02:17:15;101957.31;;;5.85;100.00
48553;BME280;34335;51.566;6.994;2023-04-09T02:19:45;101958.22;;;5.87;100.00
48553;BME280;34335;51.566;6.994;2023-04-09T02:22:11;101951.81;;;5.75;100.00
48553;BME280;34335;51.566;6.994;2023-04-09T02:24:37;101955.25;;;5.76;100.00
48553;BME280;34335;51.566;6.994;2023-04-09T02:27:03;101946.31;;;5.68;100.00
48553;BME280;34335;51.566;6.994;2023-04-09T02:29:29;101948.59;;;5.60;100.00
48553;BME280;34335;51.566;6.994;2023-04-09T02:31:55;101943.44;;;5.60;100.00
48553;BME280;34335;51.566;6.994;2023-04-09T02:34:20;101941.44;;;5.53;100.00
48553;BME280;34335;51.566;6.994;2023-04-09T02:36:45;101936.75;;;5.21;100.00
48553;BME280;34335;51.566;6.994;2023-04-09T02:39:11;101937.63;;;5.43;100.00
48553;BME280;34335;51.566;6.994;2023-04-09T02:41:36;101937.72;;;5.23;100.00
48553;BME280;34335;51.566;6.994;2023-04-09T02:44:01;101933.72;;;5.32;100.00
48553;BME280;34335;51.566;6.994;2023-04-09T02:46:26;101927.63;;;5.29;100.00
48553;BME280;34335;51.566;6.994;2023-04-09T02:48:52;101927.50;;;5.26;100.00
48553;BME280;34335;51.566;6.994;2023-04-09T02:51:17;101926.63;;;5.26;100.00
48553;BME280;34335;51.566;6.994;2023-04-09T02:53:42;101926.50;;;5.23;100.00
48553;BME280;34335;51.566;6.994;2023-04-09T02:56:09;101922.34;;;5.26;100.00
48553;BME280;34335;51.566;6.994;2023-04-09T02:58:35;101919.75;;;5.26;100.00
48553;BME280;34335;51.566;6.994;2023-04-09T03:01:00;101929.97;;;5.23;100.00
48553;BME280;34335;51.566;6.994;2023-04-09T03:03:25;101924.72;;;5.22;100.00
48553;BME280;34335;51.566;6.994;2023-04-09T03:05:51;101919.91;;;5.08;100.00
48553;BME280;34335;51.566;6.994;2023-04-09T03:08:16;101919.16;;;5.11;100.00
48553;BME280;34335;51.566;6.994;2023-04-09T03:10:41;101909.66;;;5.10;100.00
48553;BME280;34335;51.566;6.994;2023-04-09T03:13:06;101910.41;;;5.07;100.00
48553;BME280;34335;51.566;6.994;2023-04-09T03:15:32;101904.59;;;4.92;100.00
48553;BME280;34335;51.566;6.994;2023-04-09T03:17:57;101906.97;;;4.87;100.00
48553;BME280;34335;51.566;6.994;2023-04-09T03:20:22;101913.84;;;4.87;100.00
48553;BME280;34335;51.566;6.994;2023-04-09T03:22:48;101907.78;;;4.86;100.00
48553;BME280;34335;51.566;6.994;2023-04-09T03:25:13;101901.72;;;4.84;100.00
48553;BME280;34335;51.566;6.994;2023-04-09T03:27:38;101903.28;;;4.80;100.00
48553;BME280;34335;51.566;6.994;2023-04-09T03:30:04;101902.97;;;4.73;100.00
48553;BME280;34335;51.566;6.994;2023-04-09T03:32:29;101894.41;;;4.74;100.00
48553;BME280;34335;51.566;6.994;2023-04-09T03:34:55;101898.94;;;4.79;100.00
48553;BME280;34335;51.566;6.994;2023-04-09T03:37:20;101901.44;;;4.78;100.00
48553;BME280;34335;51.566;6.994;2023-04-09T03:39:45;101894.53;;;4.77;100.00
48553;BME280;34335;51.566;6.994;2023-04-09T03:42:11;101896.19;;;4.75;100.00
48553;BME280;34335;51.566;6.994;2023-04-09T03:44:36;101900.09;;;4.66;100.00
48553;BME280;34335;51.566;6.994;2023-04-09T03:47:01;101896.03;;;4.72;100.00
48553;BME280;34335;51.566;6.994;2023-04-09T03:49:27;101896.66;;;4.66;100.00
48553;BME280;34335;51.566;6.994;2023-04-09T03:51:52;101893.75;;;4.58;100.00
48553;BME280;34335;51.566;6.994;2023-04-09T03:54:18;101898.03;;;4.58;100.00
48553;BME280;34335;51.566;6.994;2023-04-09T03:56:43;101899.81;;;4.59;100.00
48553;BME280;34335;51.566;6.994;2023-04-09T03:59:08;101891.69;;;4.49;100.00
48553;BME280;34335;51.566;6.994;2023-04-09T04:01:34;101896.50;;;4.42;100.00
48553;BME280;34335;51.566;6.994;2023-04-09T04:03:59;101908.97;;;4.32;100.00
48553;BME280;34335;51.566;6.994;2023-04-09T04:06:24;101900.28;;;4.30;100.00
48553;BME280;34335;51.566;6.994;2023-04-09T04:08:51;101905.44;;;4.30;100.00
48553;BME280;34335;51.566;6.994;2023-04-09T04:11:16;101900.28;;;4.11;100.00
48553;BME280;34335;51.566;6.994;2023-04-09T04:13:41;101904.50;;;4.09;100.00
48553;BME280;34335;51.566;6.994;2023-04-09T04:16:07;101894.41;;;4.13;100.00
48553;BME280;34335;51.566;6.994;2023-04-09T04:18:33;101903.97;;;4.16;100.00
48553;BME280;34335;51.566;6.994;2023-04-09T04:20:58;101910.25;;;4.03;100.00
48553;BME280;34335;51.566;6.994;2023-04-09T04:23:24;101906.19;;;4.08;100.00
48553;BME280;34335;51.566;6.994;2023-04-09T04:25:49;101903.75;;;4.11;100.00
48553;BME280;34335;51.566;6.994;2023-04-09T04:28:14;101907.94;;;4.09;100.00
48553;BME280;34335;51.566;6.994;2023-04-09T04:30:41;101904.41;;;4.07;100.00
48553;BME280;34335;51.566;6.994;2023-04-09T04:33:06;101906.78;;;4.02;100.00
48553;BME280;34335;51.566;6.994;2023-04-09T04:35:32;101903.53;;;4.07;100.00
48553;BME280;34335;51.566;6.994;2023-04-09T04:37:57;101904.59;;;3.92;100.00
48553;BME280;34335;51.566;6.994;2023-04-09T04:40:22;101907.25;;;3.94;100.00
48553;BME280;34335;51.566;6.994;2023-04-09T04:42:48;101909.09;;;3.96;100.00
48553;BME280;34335;51.566;6.994;2023-04-09T04:45:13;101910.50;;;3.89;100.00
48553;BME280;34335;51.566;6.994;2023-04-09T04:47:38;101912.41;;;3.94;100.00
48553;BME280;34335;51.566;6.994;2023-04-09T04:50:04;101906.91;;;3.86;100.00
48553;BME280;34335;51.566;6.994;2023-04-09T04:52:30;101904.31;;;3.86;100.00
48553;BME280;34335;51.566;6.994;2023-04-09T04:54:55;101907.06;;;3.89;100.00
48553;BME280;34335;51.566;6.994;2023-04-09T04:57:20;101907.56;;;3.82;100.00
48553;BME280;34335;51.566;6.994;2023-04-09T04:59:46;101908.38;;;3.81;100.00
48553;BME280;34335;51.566;6.994;2023-04-09T05:02:11;101916.56;;;3.72;100.00
48553;BME280;34335;51.566;6.994;2023-04-09T05:04:36;101916.88;;;3.60;100.00
48553;BME280;34335;51.566;6.994;2023-04-09T05:07:02;101914.44;;;3.63;100.00
48553;BME280;34335;51.566;6.994;2023-04-09T05:09:27;101913.34;;;3.58;100.00
48553;BME280;34335;51.566;6.994;2023-04-09T05:11:52;101906.72;;;3.63;100.00
48553;BME280;34335;51.566;6.994;2023-04-09T05:14:17;101907.44;;;3.61;100.00
48553;BME280;34335;51.566;6.994;2023-04-09T05:16:45;101904.59;;;3.54;100.00
48553;BME280;34335;51.566;6.994;2023-04-09T05:19:10;101907.44;;;3.61;100.00
48553;BME280;34335;51.566;6.994;2023-04-09T05:21:36;101902.91;;;3.55;100.00
48553;BME280;34335;51.566;6.994;2023-04-09T05:24:01;101907.88;;;3.52;100.00
48553;BME280;34335;51.566;6.994;2023-04-09T05:26:26;101916.28;;;3.48;100.00
48553;BME280;34335;51.566;6.994;2023-04-09T05:28:51;101913.13;;;3.53;100.00
48553;BME280;34335;51.566;6.994;2023-04-09T05:31:17;101919.66;;;3.47;100.00
48553;BME280;34335;51.566;6.994;2023-04-09T05:33:42;101917.25;;;3.50;100.00
48553;BME280;34335;51.566;6.994;2023-04-09T05:36:16;101910.41;;;3.50;100.00
48553;BME280;34335;51.566;6.994;2023-04-09T05:38:43;101910.41;;;3.50;100.00
48553;BME280;34335;51.566;6.994;2023-04-09T05:41:08;101904.28;;;3.48;100.00
48553;BME280;34335;51.566;6.994;2023-04-09T05:43:34;101916.81;;;3.40;100.00
48553;BME280;34335;51.566;6.994;2023-04-09T05:45:59;101909.09;;;3.40;100.00
48553;BME280;34335;51.566;6.994;2023-04-09T05:48:24;101915.97;;;3.41;100.00
48553;BME280;34335;51.566;6.994;2023-04-09T05:50:52;101917.16;;;3.48;100.00
48553;BME280;34335;51.566;6.994;2023-04-09T05:53:19;101913.78;;;3.49;100.00
48553;BME280;34335;51.566;6.994;2023-04-09T05:55:44;101914.16;;;3.57;100.00
48553;BME280;34335;51.566;6.994;2023-04-09T05:58:10;101917.31;;;3.51;100.00
48553;BME280;34335;51.566;6.994;2023-04-09T06:00:36;101915.97;;;3.41;100.00
48553;BME280;34335;51.566;6.994;2023-04-09T06:03:01;101914.69;;;3.50;100.00
48553;BME280;34335;51.566;6.994;2023-04-09T06:05:27;101915.97;;;3.59;100.00
48553;BME280;34335;51.566;6.994;2023-04-09T06:07:52;101918.16;;;3.70;100.00
48553;BME280;34335;51.566;6.994;2023-04-09T06:10:17;101923.53;;;3.74;100.00
48553;BME280;34335;51.566;6.994;2023-04-09T06:12:43;101919.19;;;3.73;100.00
48553;BME280;34335;51.566;6.994;2023-04-09T06:15:08;101918.66;;;3.81;100.00
48553;BME280;34335;51.566;6.994;2023-04-09T06:17:34;101918.31;;;4.11;100.00
48553;BME280;34335;51.566;6.994;2023-04-09T06:19:59;101918.91;;;4.05;100.00
48553;BME280;34335;51.566;6.994;2023-04-09T06:22:24;101915.81;;;4.12;100.00
48553;BME280;34335;51.566;6.994;2023-04-09T06:24:49;101915.22;;;4.18;100.00
48553;BME280;34335;51.566;6.994;2023-04-09T06:27:15;101917.31;;;4.27;100.00
48553;BME280;34335;51.566;6.994;2023-04-09T06:29:40;101921.59;;;4.26;100.00
48553;BME280;34335;51.566;6.994;2023-04-09T06:32:05;101923.06;;;4.41;100.00
48553;BME280;34335;51.566;6.994;2023-04-09T06:34:31;101918.00;;;4.42;100.00
48553;BME280;34335;51.566;6.994;2023-04-09T06:36:56;101927.25;;;4.39;100.00
48553;BME280;34335;51.566;6.994;2023-04-09T06:39:21;101925.41;;;4.56;100.00
48553;BME280;34335;51.566;6.994;2023-04-09T06:41:47;101929.41;;;4.49;100.00
48553;BME280;34335;51.566;6.994;2023-04-09T06:44:12;101930.38;;;4.51;100.00
48553;BME280;34335;51.566;6.994;2023-04-09T06:46:37;101925.38;;;4.54;100.00
48553;BME280;34335;51.566;6.994;2023-04-09T06:49:03;101928.13;;;4.78;100.00
48553;BME280;34335;51.566;6.994;2023-04-09T06:51:28;101922.66;;;4.92;100.00
48553;BME280;34335;51.566;6.994;2023-04-09T06:53:53;101926.31;;;4.97;100.00
48553;BME280;34335;51.566;6.994;2023-04-09T06:56:19;101922.34;;;5.05;100.00
48553;BME280;34335;51.566;6.994;2023-04-09T06:58:44;101923.97;;;5.24;100.00
48553;BME280;34335;51.566;6.994;2023-04-09T07:01:09;101926.69;;;5.27;100.00
48553;BME280;34335;51.566;6.994;2023-04-09T07:03:35;101932.72;;;5.49;100.00
48553;BME280;34335;51.566;6.994;2023-04-09T07:06:00;101934.16;;;5.42;100.00
48553;BME280;34335;51.566;6.994;2023-04-09T07:08:25;101930.81;;;5.45;100.00
48553;BME280;34335;51.566;6.994;2023-04-09T07:10:51;101941.56;;;5.78;100.00
48553;BME280;34335;51.566;6.994;2023-04-09T07:13:16;101936.56;;;6.04;100.00
48553;BME280;34335;51.566;6.994;2023-04-09T07:15:41;101944.19;;;6.01;100.00
48553;BME280;34335;51.566;6.994;2023-04-09T07:18:07;101943.03;;;5.95;100.00
48553;BME280;34335;51.566;6.994;2023-04-09T07:20:32;101944.38;;;6.06;100.00
48553;BME280;34335;51.566;6.994;2023-04-09T07:22:58;101942.94;;;6.14;100.00
48553;BME280;34335;51.566;6.994;2023-04-09T07:25:23;101946.00;;;6.27;100.00
48553;BME280;34335;51.566;6.994;2023-04-09T07:27:49;101939.44;;;6.61;100.00
48553;BME280;34335;51.566;6.994;2023-04-09T07:30:14;101943.16;;;6.69;100.00
48553;BME280;34335;51.566;6.994;2023-04-09T07:32:40;101946.84;;;6.76;100.00
48553;BME280;34335;51.566;6.994;2023-04-09T07:35:06;101946.47;;;6.89;100.00
48553;BME280;34335;51.566;6.994;2023-04-09T07:37:33;101944.03;;;6.94;100.00
48553;BME280;34335;51.566;6.994;2023-04-09T07:39:59;101945.47;;;7.11;100.00
48553;BME280;34335;51.566;6.994;2023-04-09T07:42:24;101943.34;;;7.25;100.00
48553;BME280;34335;51.566;6.994;2023-04-09T07:44:49;101943.63;;;7.35;100.00
48553;BME280;34335;51.566;6.994;2023-04-09T07:47:15;101940.41;;;7.42;100.00
48553;BME280;34335;51.566;6.994;2023-04-09T07:49:40;101938.84;;;7.47;100.00
48553;BME280;34335;51.566;6.994;2023-04-09T07:52:06;101935.94;;;7.65;100.00
48553;BME280;34335;51.566;6.994;2023-04-09T07:54:33;101934.06;;;7.88;100.00
48553;BME280;34335;51.566;6.994;2023-04-09T07:56:59;101937.00;;;8.01;100.00
48553;BME280;34335;51.566;6.994;2023-04-09T07:59:25;101942.44;;;8.08;100.00
48553;BME280;34335;51.566;6.994;2023-04-09T08:01:52;101935.72;;;8.15;100.00
48553;BME280;34335;51.566;6.994;2023-04-09T08:04:17;101941.34;;;8.32;100.00
48553;BME280;34335;51.566;6.994;2023-04-09T08:06:43;101935.09;;;8.54;100.00
48553;BME280;34335;51.566;6.994;2023-04-09T08:09:14;101935.41;;;8.67;100.00
48553;BME280;34335;51.566;6.994;2023-04-09T08:11:39;101933.25;;;8.82;100.00
48553;BME280;34335;51.566;6.994;2023-04-09T08:14:04;101929.97;;;8.89;100.00
48553;BME280;34335;51.566;6.994;2023-04-09T08:16:30;101934.53;;;8.98;100.00
48553;BME280;34335;51.566;6.994;2023-04-09T08:18:56;101933.13;;;9.13;100.00
48553;BME280;34335;51.566;6.994;2023-04-09T08:21:22;101937.00;;;9.30;100.00
48553;BME280;34335;51.566;6.994;2023-04-09T08:23:47;101932.00;;;9.38;100.00
48553;BME280;34335;51.566;6.994;2023-04-09T08:26:12;101931.47;;;9.51;100.00
48553;BME280;34335;51.566;6.994;2023-04-09T08:28:37;101928.19;;;9.60;100.00
48553;BME280;34335;51.566;6.994;2023-04-09T08:31:03;101927.88;;;9.86;100.00
48553;BME280;34335;51.566;6.994;2023-04-09T08:33:28;101933.78;;;10.19;100.00
48553;BME280;34335;51.566;6.994;2023-04-09T08:35:54;101934.72;;;10.22;100.00
48553;BME280;34335;51.566;6.994;2023-04-09T08:38:19;101930.41;;;10.24;100.00
48553;BME280;34335;51.566;6.994;2023-04-09T08:40:45;101925.66;;;10.46;100.00
48553;BME280;34335;51.566;6.994;2023-04-09T08:43:14;101923.13;;;10.49;100.00
48553;BME280;34335;51.566;6.994;2023-04-09T08:45:40;101927.72;;;10.63;100.00
48553;BME280;34335;51.566;6.994;2023-04-09T08:48:08;101922.59;;;10.67;100.00
48553;BME280;34335;51.566;6.994;2023-04-09T08:50:34;101919.88;;;11.12;100.00
48553;BME280;34335;51.566;6.994;2023-04-09T08:53:02;101927.63;;;11.09;100.00
48553;BME280;34335;51.566;6.994;2023-04-09T08:55:29;101928.53;;;11.12;100.00
48553;BME280;34335;51.566;6.994;2023-04-09T08:57:55;101935.84;;;11.35;100.00
48553;BME280;34335;51.566;6.994;2023-04-09T09:00:22;101924.66;;;11.39;100.00
48553;BME280;34335;51.566;6.994;2023-04-09T09:03:07;101930.72;;;11.38;100.00
48553;BME280;34335;51.566;6.994;2023-04-09T09:05:40;101925.66;;;11.50;100.00
48553;BME280;34335;51.566;6.994;2023-04-09T09:08:10;101926.03;;;11.78;100.00
48553;BME280;34335;51.566;6.994;2023-04-09T09:10:37;101931.63;;;12.02;100.00
48553;BME280;34335;51.566;6.994;2023-04-09T09:13:35;101925.72;;;12.17;100.00
48553;BME280;34335;51.566;6.994;2023-04-09T09:16:12;101919.91;;;12.44;100.00
48553;BME280;34335;51.566;6.994;2023-04-09T09:18:42;101917.41;;;12.53;100.00
48553;BME280;34335;51.566;6.994;2023-04-09T09:21:14;101911.63;;;12.87;100.00
48553;BME280;34335;51.566;6.994;2023-04-09T09:23:41;101916.03;;;12.92;100.00
48553;BME280;34335;51.566;6.994;2023-04-09T09:26:12;101908.94;;;12.76;100.00
48553;BME280;34335;51.566;6.994;2023-04-09T09:28:38;101916.59;;;12.59;91.79
48553;BME280;34335;51.566;6.994;2023-04-09T09:31:08;101904.75;;;12.95;100.00
48553;BME280;34335;51.566;6.994;2023-04-09T09:33:33;101910.22;;;13.26;100.00
48553;BME280;34335;51.566;6.994;2023-04-09T09:35:59;101901.53;;;13.33;100.00
48553;BME280;34335;51.566;6.994;2023-04-09T09:38:27;101899.41;;;12.80;88.72
48553;BME280;34335;51.566;6.994;2023-04-09T09:40:52;101897.16;;;13.24;100.00
48553;BME280;34335;51.566;6.994;2023-04-09T09:43:18;101893.47;;;12.98;93.38
48553;BME280;34335;51.566;6.994;2023-04-09T09:45:45;101891.03;;;13.21;100.00
48553;BME280;34335;51.566;6.994;2023-04-09T09:48:10;101885.13;;;13.45;100.00
48553;BME280;34335;51.566;6.994;2023-04-09T09:50:40;101893.81;;;13.39;91.46
48553;BME280;34335;51.566;6.994;2023-04-09T09:53:07;101891.03;;;13.24;92.31
48553;BME280;34335;51.566;6.994;2023-04-09T09:55:38;101882.69;;;13.84;100.00
48553;BME280;34335;51.566;6.994;2023-04-09T09:58:21;101875.81;;;14.05;100.00
48553;BME280;34335;51.566;6.994;2023-04-09T10:00:48;101863.63;;;14.22;100.00
48553;BME280;34335;51.566;6.994;2023-04-09T10:03:26;101869.69;;;14.01;83.28
48553;BME280;34335;51.566;6.994;2023-04-09T10:05:54;101873.28;;;14.42;100.00
48553;BME280;34335;51.566;6.994;2023-04-09T10:08:21;101876.78;;;14.50;82.62
48553;BME280;34335;51.566;6.994;2023-04-09T10:10:48;101863.72;;;14.83;100.00
48553;BME280;34335;51.566;6.994;2023-04-09T10:13:25;101865.47;;;14.88;100.00
48553;BME280;34335;51.566;6.994;2023-04-09T10:15:54;101857.59;;;15.15;100.00
48553;BME280;34335;51.566;6.994;2023-04-09T10:18:19;101853.22;;;15.21;100.00
48553;BME280;34335;51.566;6.994;2023-04-09T10:20:53;101865.44;;;15.16;95.93
48553;BME280;34335;51.566;6.994;2023-04-09T10:23:30;101861.13;;;14.98;75.91
48553;BME280;34335;51.566;6.994;2023-04-09T10:25:56;101855.84;;;15.34;100.00
48553;BME280;34335;51.566;6.994;2023-04-09T10:28:22;101855.81;;;15.38;75.07
48553;BME280;34335;51.566;6.994;2023-04-09T10:30:47;101858.38;;;15.55;88.35
48553;BME280;34335;51.566;6.994;2023-04-09T10:33:14;101860.03;;;15.81;99.55
48553;BME280;34335;51.566;6.994;2023-04-09T10:35:41;101860.88;;;15.83;71.89
48553;BME280;34335;51.566;6.994;2023-04-09T10:38:08;101858.19;;;16.02;92.67
48553;BME280;34335;51.566;6.994;2023-04-09T10:40:39;101853.06;;;15.76;76.94
48553;BME280;34335;51.566;6.994;2023-04-09T10:43:06;101857.50;;;15.55;68.69
48553;BME280;34335;51.566;6.994;2023-04-09T10:45:40;101847.78;;;15.86;79.71
48553;BME280;34335;51.566;6.994;2023-04-09T10:48:10;101862.78;;;15.39;68.65
48553;BME280;34335;51.566;6.994;2023-04-09T10:50:37;101853.97;;;15.67;70.55
48553;BME280;34335;51.566;6.994;2023-04-09T10:53:03;101852.16;;;15.78;72.15
48553;BME280;34335;51.566;6.994;2023-04-09T10:58:00;101856.56;;;15.68;85.76
48553;BME280;34335;51.566;6.994;2023-04-09T11:00:26;101849.44;;;16.03;100.00
48553;BME280;34335;51.566;6.994;2023-04-09T11:03:09;101842.03;;;16.64;98.00
48553;BME280;34335;51.566;6.994;2023-04-09T11:05:38;101850.78;;;16.64;66.80
48553;BME280;34335;51.566;6.994;2023-04-09T11:08:11;101848.97;;;16.74;74.07
48553;BME280;34335;51.566;6.994;2023-04-09T11:10:38;101848.59;;;16.01;61.06
48553;BME280;34335;51.566;6.994;2023-04-09T11:13:05;101833.38;;;16.56;63.91
48553;BME280;34335;51.566;6.994;2023-04-09T11:15:33;101840.38;;;16.57;66.46
48553;BME280;34335;51.566;6.994;2023-04-09T11:17:59;101833.38;;;16.52;65.13
48553;BME280;34335;51.566;6.994;2023-04-09T11:20:26;101831.22;;;17.04;76.60
48553;BME280;34335;51.566;6.994;2023-04-09T11:22:53;101828.84;;;16.73;61.43
48553;BME280;34335;51.566;6.994;2023-04-09T11:25:25;101829.16;;;17.34;70.60
48553;BME280;34335;51.566;6.994;2023-04-09T11:27:50;101823.50;;;17.67;64.35
48553;BME280;34335;51.566;6.994;2023-04-09T11:30:35;101828.81;;;17.60;67.28
48553;BME280;34335;51.566;6.994;2023-04-09T11:33:20;101823.94;;;18.00;60.96
48553;BME280;34335;51.566;6.994;2023-04-09T11:35:47;101815.66;;;18.26;75.95
48553;BME280;34335;51.566;6.994;2023-04-09T11:38:12;101826.63;;;17.98;70.60
48553;BME280;34335;51.566;6.994;2023-04-09T11:40:42;101818.69;;;18.01;76.48
48553;BME280;34335;51.566;6.994;2023-04-09T11:43:12;101818.56;;;17.37;73.13
48553;BME280;34335;51.566;6.994;2023-04-09T11:45:39;101809.69;;;17.48;74.39
48553;BME280;34335;51.566;6.994;2023-04-09T11:48:04;101804.19;;;18.32;88.63
48553;BME280;34335;51.566;6.994;2023-04-09T11:50:30;101798.88;;;18.35;78.79
48553;BME280;34335;51.566;6.994;2023-04-09T11:52:56;101801.78;;;17.51;62.42
48553;BME280;34335;51.566;6.994;2023-04-09T11:55:27;101801.94;;;18.05;59.57
48553;BME280;34335;51.566;6.994;2023-04-09T11:57:56;101796.63;;;18.09;70.08
48553;BME280;34335;51.566;6.994;2023-04-09T12:00:22;101799.53;;;18.48;59.84
48553;BME280;34335;51.566;6.994;2023-04-09T12:02:57;101810.78;;;17.31;58.41
48553;BME280;34335;51.566;6.994;2023-04-09T12:05:27;101791.81;;;18.37;72.52
48553;BME280;34335;51.566;6.994;2023-04-09T12:08:00;101805.63;;;18.51;71.92
48553;BME280;34335;51.566;6.994;2023-04-09T12:10:27;101794.78;;;18.14;58.54
48553;BME280;34335;51.566;6.994;2023-04-09T12:12:53;101796.06;;;18.46;77.05
48553;BME280;34335;51.566;6.994;2023-04-09T12:15:19;101802.28;;;18.40;62.32
48553;BME280;34335;51.566;6.994;2023-04-09T12:17:47;101793.03;;;18.69;68.30
48553;BME280;34335;51.566;6.994;2023-04-09T12:20:13;101798.63;;;19.00;67.07
48553;BME280;34335;51.566;6.994;2023-04-09T12:22:38;101789.41;;;19.23;67.18
48553;BME280;34335;51.566;6.994;2023-04-09T12:25:06;101800.13;;;18.65;65.23
48553;BME280;34335;51.566;6.994;2023-04-09T12:27:31;101798.75;;;17.80;53.99
48553;BME280;34335;51.566;6.994;2023-04-09T12:29:56;101791.25;;;18.15;57.66
48553;BME280;34335;51.566;6.994;2023-04-09T12:32:22;101795.47;;;18.80;65.07
48553;BME280;34335;51.566;6.994;2023-04-09T12:34:47;101798.53;;;19.07;56.88
48553;BME280;34335;51.566;6.994;2023-04-09T12:37:14;101790.88;;;19.79;65.43
48553;BME280;34335;51.566;6.994;2023-04-09T12:39:39;101793.91;;;19.62;59.67
48553;BME280;34335;51.566;6.994;2023-04-09T12:42:05;101788.47;;;19.26;63.10
48553;BME280;34335;51.566;6.994;2023-04-09T12:44:30;101798.78;;;19.38;56.20
48553;BME280;34335;51.566;6.994;2023-04-09T12:46:57;101790.03;;;19.77;63.92
48553;BME280;34335;51.566;6.994;2023-04-09T12:49:22;101793.91;;;20.01;56.44
48553;BME280;34335;51.566;6.994;2023-04-09T12:51:48;101788.41;;;20.12;55.99
48553;BME280;34335;51.566;6.994;2023-04-09T12:54:13;101794.22;;;20.27;58.21
48553;BME280;34335;51.566;6.994;2023-04-09T12:56:38;101791.56;;;20.63;63.79
48553;BME280;34335;51.566;6.994;2023-04-09T12:59:04;101795.25;;;19.80;50.84
48553;BME280;34335;51.566;6.994;2023-04-09T13:01:30;101795.69;;;20.38;64.76